createdAt,value
2018-06-08T00:00:36.538Z,17.83
2018-06-08T00:03:05.174Z,17.78
2018-06-08T00:05:33.757Z,17.80
2018-06-08T00:08:02.395Z,18.04
2018-06-08T00:10:30.979Z,18.07
2018-06-08T00:12:59.550Z,18.08
2018-06-08T00:15:28.127Z,18.00
2018-06-08T00:17:56.712Z,17.94
2018-06-08T00:20:25.342Z,17.86
2018-06-08T00:22:53.916Z,17.87
2018-06-08T00:25:22.496Z,17.94
2018-06-08T00:27:51.106Z,18.14
2018-06-08T00:30:19.725Z,18.09
2018-06-08T00:32:48.307Z,18.04
2018-06-08T00:35:16.943Z,17.95
2018-06-08T00:37:45.511Z,17.98
2018-06-08T00:40:14.091Z,17.89
2018-06-08T00:42:42.688Z,17.82
2018-06-08T00:45:11.298Z,17.46
2018-06-08T00:47:39.884Z,17.51
2018-06-08T00:50:08.483Z,17.44
2018-06-08T00:52:37.089Z,17.33
2018-06-08T00:55:06.111Z,17.27
2018-06-08T00:57:34.694Z,17.26
2018-06-08T01:00:04.614Z,17.23
2018-06-08T01:02:33.215Z,17.23
2018-06-08T01:05:01.803Z,17.19
2018-06-08T01:07:30.394Z,17.14
2018-06-08T01:09:58.957Z,17.13
2018-06-08T01:12:27.565Z,17.02
2018-06-08T01:14:56.118Z,16.95
2018-06-08T01:17:24.734Z,16.70
2018-06-08T01:19:53.340Z,16.97
2018-06-08T01:22:21.931Z,16.98
2018-06-08T01:24:50.527Z,16.99
2018-06-08T01:27:19.122Z,16.90
2018-06-08T01:29:47.682Z,16.85
2018-06-08T01:32:16.275Z,16.87
2018-06-08T01:34:44.829Z,16.89
2018-06-08T01:37:13.442Z,16.84
2018-06-08T01:39:42.026Z,16.79
2018-06-08T01:42:10.606Z,16.81
2018-06-08T01:44:39.212Z,16.84
2018-06-08T01:47:07.767Z,16.83
2018-06-08T01:49:36.359Z,16.79
2018-06-08T01:52:04.990Z,16.84
2018-06-08T01:54:33.610Z,16.80
2018-06-08T01:57:02.213Z,16.79
2018-06-08T01:59:30.897Z,16.87
2018-06-08T02:01:59.466Z,16.91
2018-06-08T02:04:28.039Z,16.81
2018-06-08T02:06:56.604Z,16.71
2018-06-08T02:09:25.228Z,16.64
2018-06-08T02:11:53.895Z,16.58
2018-06-08T02:14:22.477Z,16.52
2018-06-08T02:16:51.078Z,16.44
2018-06-08T02:19:21.900Z,16.38
2018-06-08T02:21:50.511Z,16.37
2018-06-08T02:24:19.102Z,16.36
2018-06-08T02:26:47.718Z,16.41
2018-06-08T02:29:16.283Z,16.42
2018-06-08T02:31:44.899Z,16.74
2018-06-08T02:34:13.459Z,16.91
2018-06-08T02:36:42.038Z,17.01
2018-06-08T02:39:10.686Z,17.06
2018-06-08T02:41:39.291Z,16.98
2018-06-08T02:44:07.935Z,16.92
2018-06-08T02:46:36.582Z,16.97
2018-06-08T02:49:05.226Z,17.06
2018-06-08T02:51:33.832Z,17.23
2018-06-08T02:54:02.466Z,17.31
2018-06-08T02:56:31.386Z,17.30
2018-06-08T02:58:59.962Z,17.39
2018-06-08T03:01:28.935Z,17.49
2018-06-08T03:03:57.520Z,17.38
2018-06-08T03:06:26.104Z,17.26
2018-06-08T03:08:54.685Z,17.26
2018-06-08T03:11:23.331Z,17.18
2018-06-08T03:13:51.951Z,17.07
2018-06-08T03:16:20.574Z,16.93
2018-06-08T03:18:49.187Z,16.93
2018-06-08T03:21:17.754Z,16.97
2018-06-08T03:23:46.328Z,17.08
2018-06-08T03:26:14.895Z,17.23
2018-06-08T03:28:43.501Z,17.19
2018-06-08T03:31:12.088Z,17.15
2018-06-08T03:33:40.970Z,17.40
2018-06-08T03:36:09.552Z,17.52
2018-06-08T03:38:38.134Z,17.50
2018-06-08T03:41:06.881Z,17.42
2018-06-08T03:43:35.444Z,17.42
2018-06-08T03:46:04.059Z,17.56
2018-06-08T03:48:32.644Z,17.40
2018-06-08T03:51:01.326Z,17.36
2018-06-08T03:53:29.895Z,17.34
2018-06-08T03:55:58.499Z,17.25
2018-06-08T03:58:27.062Z,17.26
2018-06-08T04:00:55.648Z,17.17
2018-06-08T04:03:24.302Z,16.73
2018-06-08T04:05:52.887Z,17.34
2018-06-08T04:08:21.515Z,17.36
2018-06-08T04:10:50.134Z,17.47
2018-06-08T04:13:18.739Z,17.63
2018-06-08T04:15:47.386Z,17.74
2018-06-08T04:18:15.986Z,17.89
2018-06-08T04:20:44.579Z,17.84
2018-06-08T04:23:13.174Z,17.77
2018-06-08T04:25:41.856Z,17.87
2018-06-08T04:28:10.415Z,18.07
2018-06-08T04:30:39.023Z,16.92
2018-06-08T04:33:07.612Z,18.13
2018-06-08T04:35:36.251Z,18.21
2018-06-08T04:38:04.832Z,18.35
2018-06-08T04:40:33.492Z,18.45
2018-06-08T04:43:02.046Z,18.64
2018-06-08T04:45:30.657Z,18.76
2018-06-08T04:47:59.227Z,18.74
2018-06-08T04:50:27.848Z,18.75
2018-06-08T04:52:56.427Z,18.69
2018-06-08T04:55:25.042Z,18.75
2018-06-08T04:57:53.606Z,18.84
2018-06-08T05:00:22.182Z,18.97
2018-06-08T05:02:50.771Z,19.14
2018-06-08T05:05:19.363Z,19.21
2018-06-08T05:07:47.977Z,19.21
2018-06-08T05:10:16.606Z,19.49
2018-06-08T05:12:45.159Z,19.72
2018-06-08T05:15:13.763Z,20.00
2018-06-08T05:17:42.390Z,20.37
2018-06-08T05:20:11.003Z,19.92
2018-06-08T05:22:39.642Z,21.04
2018-06-08T05:25:08.241Z,20.60
2018-06-08T05:27:37.187Z,20.91
2018-06-08T05:30:16.846Z,21.06
2018-06-08T05:32:45.998Z,20.81
2018-06-08T05:35:14.628Z,21.35
2018-06-08T05:37:43.242Z,21.80
2018-06-08T05:40:11.876Z,22.32
2018-06-08T05:42:40.488Z,22.31
2018-06-08T05:45:09.195Z,22.58
2018-06-08T05:47:38.279Z,22.60
2018-06-08T05:50:06.968Z,23.14
2018-06-08T05:52:35.620Z,23.75
2018-06-08T05:55:04.248Z,24.15
2018-06-08T05:57:32.823Z,23.51
2018-06-08T06:00:01.511Z,23.92
2018-06-08T06:02:30.193Z,24.63
2018-06-08T06:04:58.792Z,24.16
2018-06-08T06:07:27.391Z,24.00
2018-06-08T06:09:56.027Z,24.35
2018-06-08T06:12:24.641Z,24.30
2018-06-08T06:14:53.310Z,24.13
2018-06-08T06:17:21.943Z,24.31
2018-06-08T06:19:50.566Z,24.97
2018-06-08T06:22:19.177Z,25.04
2018-06-08T06:24:47.832Z,24.44
2018-06-08T06:27:16.465Z,24.55
2018-06-08T06:29:45.049Z,24.72
2018-06-08T06:32:13.646Z,24.85
2018-06-08T06:34:42.274Z,25.16
2018-06-08T06:37:10.911Z,25.19
2018-06-08T06:39:39.535Z,25.10
2018-06-08T06:42:08.088Z,25.41
2018-06-08T06:44:36.749Z,25.31
2018-06-08T06:47:05.432Z,25.92
2018-06-08T06:49:34.069Z,26.32
2018-06-08T06:52:03.099Z,26.43
2018-06-08T06:54:31.679Z,27.25
2018-06-08T06:57:00.273Z,27.39
2018-06-08T06:59:28.857Z,27.21
2018-06-08T07:01:57.455Z,27.33
2018-06-08T07:04:26.132Z,27.01
2018-06-08T07:06:54.730Z,24.53
2018-06-08T07:09:23.300Z,27.40
2018-06-08T07:11:51.907Z,27.29
2018-06-08T07:14:20.556Z,27.64
2018-06-08T07:16:49.175Z,27.98
2018-06-08T07:19:17.788Z,28.12
2018-06-08T07:21:46.384Z,28.00
2018-06-08T07:24:14.991Z,27.70
2018-06-08T07:26:43.622Z,28.31
2018-06-08T07:29:12.257Z,28.58
2018-06-08T07:31:40.934Z,28.51
2018-06-08T07:34:09.518Z,28.66
2018-06-08T07:36:38.069Z,28.40
2018-06-08T07:39:07.927Z,28.18
2018-06-08T07:41:36.560Z,29.07
2018-06-08T07:44:05.141Z,29.76
2018-06-08T07:46:33.747Z,29.67
2018-06-08T07:49:02.356Z,29.18
2018-06-08T07:51:30.984Z,28.68
2018-06-08T07:53:59.555Z,28.54
2018-06-08T07:56:28.478Z,29.22
2018-06-08T07:58:57.088Z,29.21
2018-06-08T08:01:25.718Z,28.97
2018-06-08T08:03:54.306Z,29.03
2018-06-08T08:06:22.988Z,29.15
2018-06-08T08:08:51.567Z,28.97
2018-06-08T08:11:20.195Z,28.99
2018-06-08T08:13:49.153Z,29.39
2018-06-08T08:16:17.782Z,29.45
2018-06-08T08:18:46.395Z,29.83
2018-06-08T08:21:15.047Z,29.52
2018-06-08T08:23:43.628Z,29.50
2018-06-08T08:26:12.219Z,29.58
2018-06-08T08:28:41.140Z,29.56
2018-06-08T08:31:09.766Z,29.68
2018-06-08T08:33:38.342Z,30.02
2018-06-08T08:36:07.991Z,29.33
2018-06-08T08:38:36.564Z,29.43
2018-06-08T08:41:05.252Z,29.46
2018-06-08T08:43:33.871Z,30.03
2018-06-08T08:46:02.474Z,30.65
2018-06-08T08:48:31.191Z,29.94
2018-06-08T08:50:59.918Z,29.78
2018-06-08T08:53:28.510Z,30.15
2018-06-08T08:55:57.120Z,30.42
2018-06-08T08:58:25.693Z,29.57
2018-06-08T09:00:54.267Z,29.24
2018-06-08T09:03:22.866Z,30.26
2018-06-08T09:05:51.508Z,30.48
2018-06-08T09:08:20.203Z,30.58
2018-06-08T09:10:48.977Z,30.53
2018-06-08T09:13:17.573Z,31.04
2018-06-08T09:15:46.240Z,31.18
2018-06-08T09:18:14.825Z,31.20
2018-06-08T09:20:43.444Z,31.25
2018-06-08T09:23:12.013Z,31.21
2018-06-08T09:25:40.656Z,30.03
2018-06-08T09:28:09.606Z,29.79
2018-06-08T09:30:38.185Z,31.30
2018-06-08T09:33:06.877Z,31.66
2018-06-08T09:35:35.515Z,31.86
2018-06-08T09:38:04.179Z,31.36
2018-06-08T09:40:32.787Z,31.14
2018-06-08T09:43:01.401Z,30.69
2018-06-08T09:45:29.998Z,31.11
2018-06-08T09:47:58.586Z,31.77
2018-06-08T09:50:27.381Z,31.95
2018-06-08T09:52:56.052Z,32.35
2018-06-08T09:55:24.666Z,32.10
2018-06-08T09:57:53.252Z,31.83
2018-06-08T10:00:27.030Z,32.13
2018-06-08T10:02:56.111Z,32.05
2018-06-08T10:05:24.733Z,32.69
2018-06-08T10:07:53.310Z,32.91
2018-06-08T10:10:21.915Z,32.55
2018-06-08T10:12:50.564Z,33.25
2018-06-08T10:15:19.155Z,32.72
2018-06-08T10:17:47.748Z,32.81
2018-06-08T10:20:16.354Z,33.29
2018-06-08T10:22:44.975Z,33.58
2018-06-08T10:25:13.562Z,34.16
2018-06-08T10:27:42.163Z,33.90
2018-06-08T10:30:11.164Z,33.07
2018-06-08T10:32:39.787Z,33.03
2018-06-08T10:35:08.439Z,33.46
2018-06-08T10:37:37.057Z,32.83
2018-06-08T10:40:05.702Z,33.69
2018-06-08T10:42:34.387Z,34.43
2018-06-08T10:45:03.075Z,34.26
2018-06-08T10:47:31.688Z,33.29
2018-06-08T10:50:00.607Z,33.84
2018-06-08T10:52:29.199Z,34.30
2018-06-08T10:54:57.783Z,34.82
2018-06-08T10:57:30.366Z,34.46
2018-06-08T10:59:59.230Z,33.22
2018-06-08T11:02:28.187Z,31.93
2018-06-08T11:04:56.770Z,31.64
2018-06-08T11:07:25.382Z,31.18
2018-06-08T11:09:53.952Z,31.83
2018-06-08T11:12:22.548Z,32.46
2018-06-08T11:14:51.507Z,32.86
2018-06-08T11:17:20.398Z,33.10
2018-06-08T11:19:48.998Z,33.23
2018-06-08T11:22:17.626Z,32.37
2018-06-08T11:24:46.254Z,32.18
2018-06-08T11:27:14.842Z,32.55
2018-06-08T11:29:43.415Z,32.19
2018-06-08T11:32:12.018Z,32.15
2018-06-08T11:34:40.610Z,32.10
2018-06-08T11:37:09.273Z,31.52
2018-06-08T11:39:38.198Z,31.27
2018-06-08T11:42:06.835Z,31.57
2018-06-08T11:44:35.443Z,32.36
2018-06-08T11:47:04.081Z,32.47
2018-06-08T11:49:32.651Z,31.94
2018-06-08T11:52:01.249Z,32.13
2018-06-08T11:54:29.839Z,32.09
2018-06-08T11:56:58.420Z,32.21
2018-06-08T11:59:27.026Z,31.98
2018-06-08T12:01:55.634Z,31.83
2018-06-08T12:04:24.309Z,31.82
2018-06-08T12:06:52.893Z,31.81
2018-06-08T12:09:21.573Z,31.38
2018-06-08T12:11:50.226Z,31.45
2018-06-08T12:14:18.806Z,31.04
2018-06-08T12:16:47.401Z,31.31
2018-06-08T12:19:16.014Z,31.19
2018-06-08T12:21:44.629Z,31.13
2018-06-08T12:24:13.210Z,31.15
2018-06-08T12:26:41.834Z,31.10
2018-06-08T12:29:10.443Z,31.05
2018-06-08T12:31:39.039Z,31.20
2018-06-08T12:34:07.658Z,31.28
2018-06-08T12:36:36.306Z,30.49
2018-06-08T12:39:07.407Z,30.05
2018-06-08T12:41:36.918Z,30.60
2018-06-08T12:44:05.464Z,30.94
2018-06-08T12:46:34.123Z,31.14
2018-06-08T12:49:02.841Z,30.98
2018-06-08T12:51:31.496Z,30.75
2018-06-08T12:54:00.090Z,30.38
2018-06-08T12:56:28.661Z,30.12
2018-06-08T12:58:57.237Z,29.89
2018-06-08T13:01:25.839Z,30.15
2018-06-08T13:03:54.442Z,30.59
2018-06-08T13:06:23.062Z,30.85
2018-06-08T13:08:51.687Z,30.37
2018-06-08T13:11:20.289Z,30.44
2018-06-08T13:13:48.959Z,30.67
2018-06-08T13:16:17.576Z,30.35
2018-06-08T13:18:46.187Z,30.81
2018-06-08T13:21:14.840Z,31.10
2018-06-08T13:23:43.436Z,31.23
2018-06-08T13:26:12.194Z,31.32
2018-06-08T13:28:40.811Z,30.76
2018-06-08T13:31:09.457Z,29.88
2018-06-08T13:33:38.022Z,29.48
2018-06-08T13:36:06.616Z,29.02
2018-06-08T13:38:35.190Z,28.94
2018-06-08T13:41:03.872Z,29.02
2018-06-08T13:43:32.539Z,29.26
2018-06-08T13:46:01.098Z,29.38
2018-06-08T13:48:29.859Z,29.40
2018-06-08T13:50:58.466Z,29.46
2018-06-08T13:53:27.127Z,29.41
2018-06-08T13:55:55.712Z,29.14
2018-06-08T13:58:24.334Z,29.16
2018-06-08T14:00:52.919Z,29.19
2018-06-08T14:03:21.564Z,29.38
2018-06-08T14:05:50.645Z,29.07
2018-06-08T14:08:19.226Z,29.16
2018-06-08T14:10:47.834Z,28.96
2018-06-08T14:13:16.601Z,29.07
2018-06-08T14:15:45.231Z,29.15
2018-06-08T14:18:13.839Z,29.25
2018-06-08T14:20:42.488Z,29.28
2018-06-08T14:23:11.114Z,29.16
2018-06-08T14:25:39.695Z,28.95
2018-06-08T14:28:08.311Z,28.96
2018-06-08T14:30:36.919Z,28.87
2018-06-08T14:33:05.563Z,28.76
2018-06-08T14:35:34.186Z,28.78
2018-06-08T14:38:02.912Z,28.84
2018-06-08T14:40:31.536Z,28.76
2018-06-08T14:43:00.227Z,28.67
2018-06-08T14:45:28.872Z,28.77
2018-06-08T14:47:57.439Z,28.92
2018-06-08T14:50:26.073Z,28.83
2018-06-08T14:52:54.655Z,28.77
2018-06-08T14:55:23.345Z,28.73
2018-06-08T14:57:51.964Z,28.57
2018-06-08T15:00:20.588Z,28.44
2018-06-08T15:02:49.196Z,28.53
2018-06-08T15:05:18.341Z,28.48
2018-06-08T15:07:46.916Z,28.52
2018-06-08T15:10:15.543Z,28.46
2018-06-08T15:12:44.211Z,28.42
2018-06-08T15:15:12.817Z,28.48
2018-06-08T15:17:42.185Z,28.36
2018-06-08T15:20:10.774Z,28.36
2018-06-08T15:22:39.419Z,28.31
2018-06-08T15:25:07.999Z,28.28
2018-06-08T15:27:36.582Z,28.29
2018-06-08T15:30:06.183Z,28.42
2018-06-08T15:32:34.795Z,28.44
2018-06-08T15:35:04.470Z,28.53
2018-06-08T15:37:33.090Z,28.52
2018-06-08T15:40:01.703Z,28.55
2018-06-08T15:42:30.311Z,28.57
2018-06-08T15:44:58.907Z,28.62
2018-06-08T15:47:27.523Z,28.54
2018-06-08T15:49:56.247Z,28.37
2018-06-08T15:52:24.855Z,28.39
2018-06-08T15:54:54.099Z,28.45
2018-06-08T15:57:22.751Z,28.41
2018-06-08T15:59:51.401Z,28.20
2018-06-08T16:02:19.987Z,28.13
2018-06-08T16:04:48.539Z,28.11
2018-06-08T16:07:17.210Z,28.01
2018-06-08T16:09:45.874Z,28.01
2018-06-08T16:12:14.456Z,27.93
2018-06-08T16:14:43.094Z,27.90
2018-06-08T16:17:11.708Z,27.88
2018-06-08T16:19:40.298Z,27.73
2018-06-08T16:22:09.300Z,27.62
2018-06-08T16:24:37.905Z,27.54
2018-06-08T16:27:06.513Z,26.48
2018-06-08T16:29:35.089Z,27.47
2018-06-08T16:32:03.723Z,27.39
2018-06-08T16:34:32.360Z,27.30
2018-06-08T16:37:02.033Z,27.23
2018-06-08T16:39:30.677Z,27.06
2018-06-08T16:41:59.308Z,26.94
2018-06-08T16:44:27.991Z,26.85
2018-06-08T16:46:56.556Z,26.80
2018-06-08T16:49:25.130Z,26.72
2018-06-08T16:51:53.772Z,26.72
2018-06-08T16:54:22.678Z,26.65
2018-06-08T16:56:51.288Z,26.57
2018-06-08T16:59:19.904Z,26.52
2018-06-08T17:01:48.576Z,26.54
2018-06-08T17:04:17.246Z,26.50
2018-06-08T17:06:45.950Z,26.45
2018-06-08T17:09:14.564Z,26.39
2018-06-08T17:11:43.183Z,26.40
2018-06-08T17:14:11.787Z,26.36
2018-06-08T17:16:40.400Z,25.20
2018-06-08T17:19:09.017Z,26.22
2018-06-08T17:21:37.632Z,26.15
2018-06-08T17:24:06.254Z,26.15
2018-06-08T17:26:34.940Z,26.15
2018-06-08T17:29:03.578Z,26.11
2018-06-08T17:31:32.201Z,26.05
2018-06-08T17:34:00.794Z,26.02
2018-06-08T17:36:29.490Z,25.97
2018-06-08T17:38:58.070Z,25.91
2018-06-08T17:41:26.686Z,25.84
2018-06-08T17:43:55.406Z,25.73
2018-06-08T17:46:24.079Z,25.60
2018-06-08T17:48:52.716Z,25.53
2018-06-08T17:51:21.307Z,25.45
2018-06-08T17:53:49.914Z,25.34
2018-06-08T17:56:18.493Z,25.25
2018-06-08T17:58:47.145Z,25.22
2018-06-08T18:01:15.744Z,25.17
2018-06-08T18:03:44.395Z,25.11
2018-06-08T18:06:13.058Z,25.05
2018-06-08T18:08:41.623Z,24.97
2018-06-08T18:11:10.219Z,24.93
2018-06-08T18:13:38.845Z,24.89
2018-06-08T18:16:07.448Z,24.87
2018-06-08T18:18:36.104Z,24.86
2018-06-08T18:21:04.711Z,24.84
2018-06-08T18:23:33.357Z,24.81
2018-06-08T18:26:01.919Z,24.78
2018-06-08T18:28:30.572Z,24.70
2018-06-08T18:30:59.199Z,24.66
2018-06-08T18:33:27.850Z,24.62
2018-06-08T18:35:56.442Z,24.51
2018-06-08T18:38:25.055Z,24.37
2018-06-08T18:40:53.667Z,24.24
2018-06-08T18:43:22.297Z,24.16
2018-06-08T18:45:50.886Z,24.16
2018-06-08T18:48:19.498Z,24.13
2018-06-08T18:50:48.120Z,24.14
2018-06-08T18:53:16.679Z,24.09
2018-06-08T18:55:45.294Z,24.06
2018-06-08T18:58:13.884Z,24.01
2018-06-08T19:00:42.526Z,23.94
2018-06-08T19:03:11.101Z,23.89
2018-06-08T19:05:39.710Z,23.82
2018-06-08T19:08:09.950Z,23.76
2018-06-08T19:10:38.558Z,23.74
2018-06-08T19:13:07.161Z,23.67
2018-06-08T19:15:35.767Z,23.66
2018-06-08T19:18:04.416Z,23.63
2018-06-08T19:20:33.154Z,23.62
2018-06-08T19:23:01.739Z,23.60
2018-06-08T19:25:30.946Z,23.58
2018-06-08T19:27:59.522Z,23.55
2018-06-08T19:30:28.135Z,23.54
2018-06-08T19:32:56.748Z,23.54
2018-06-08T19:35:25.354Z,23.55
2018-06-08T19:37:53.937Z,23.53
2018-06-08T19:40:22.582Z,23.51
2018-06-08T19:42:51.758Z,23.09
2018-06-08T19:45:20.330Z,23.42
2018-06-08T19:47:48.958Z,23.39
2018-06-08T19:50:17.587Z,23.40
2018-06-08T19:52:46.154Z,23.37
2018-06-08T19:55:14.758Z,23.32
2018-06-08T19:57:43.383Z,23.32
2018-06-08T20:00:14.729Z,23.32
2018-06-08T20:02:43.330Z,23.30
2018-06-08T20:05:11.981Z,23.35
2018-06-08T20:07:40.560Z,23.43
2018-06-08T20:10:09.153Z,23.45
2018-06-08T20:12:38.271Z,23.45
2018-06-08T20:15:06.851Z,23.43
2018-06-08T20:17:35.427Z,23.42
2018-06-08T20:20:04.062Z,23.39
2018-06-08T20:22:32.648Z,23.49
2018-06-08T20:25:01.264Z,23.49
2018-06-08T20:27:29.819Z,23.43
2018-06-08T20:29:58.431Z,23.37
2018-06-08T20:32:27.015Z,23.35
2018-06-08T20:34:55.586Z,23.33
2018-06-08T20:37:24.510Z,23.26
2018-06-08T20:39:53.150Z,23.19
2018-06-08T20:42:21.742Z,22.91
2018-06-08T20:44:50.346Z,23.12
2018-06-08T20:47:19.014Z,23.09
2018-06-08T20:49:47.935Z,23.11
2018-06-08T20:52:16.563Z,23.10
2018-06-08T20:54:45.170Z,23.09
2018-06-08T20:57:23.521Z,23.08
2018-06-08T20:59:52.134Z,22.99
2018-06-08T21:02:20.972Z,22.74
2018-06-08T21:04:50.179Z,22.57
2018-06-08T21:07:18.862Z,22.50
2018-06-08T21:09:47.478Z,22.45
2018-06-08T21:12:16.252Z,22.42
2018-06-08T21:14:44.895Z,22.38
2018-06-08T21:17:13.548Z,22.37
2018-06-08T21:19:42.246Z,22.33
2018-06-08T21:22:10.834Z,22.30
2018-06-08T21:24:39.533Z,22.22
2018-06-08T21:27:08.234Z,22.22
2018-06-08T21:29:36.796Z,22.28
2018-06-08T21:32:05.462Z,22.29
2018-06-08T21:34:34.199Z,22.25
2018-06-08T21:37:02.828Z,22.19
2018-06-08T21:39:31.457Z,22.17
2018-06-08T21:42:00.049Z,22.10
2018-06-08T21:44:28.680Z,22.10
2018-06-08T21:46:57.297Z,22.10
2018-06-08T21:49:25.923Z,22.10
2018-06-08T21:51:54.546Z,22.10
2018-06-08T21:54:23.181Z,22.07
2018-06-08T21:56:51.828Z,22.02
2018-06-08T21:59:20.426Z,22.00
2018-06-08T22:01:49.060Z,21.91
2018-06-08T22:04:17.696Z,21.77
2018-06-08T22:06:46.351Z,21.66
2018-06-08T22:09:18.661Z,21.60
2018-06-08T22:11:47.548Z,21.56
2018-06-08T22:14:16.170Z,21.55
2018-06-08T22:16:44.897Z,21.61
2018-06-08T22:19:13.522Z,21.65
2018-06-08T22:21:42.183Z,21.63
2018-06-08T22:24:10.831Z,21.60
2018-06-08T22:26:39.566Z,21.70
2018-06-08T22:29:08.185Z,21.75
2018-06-08T22:31:36.795Z,21.66
2018-06-08T22:34:05.543Z,21.58
2018-06-08T22:36:34.106Z,21.51
2018-06-08T22:39:02.764Z,21.46
2018-06-08T22:41:31.367Z,21.40
2018-06-08T22:44:00.009Z,21.42
2018-06-08T22:46:28.613Z,21.45
2018-06-08T22:48:57.201Z,21.49
2018-06-08T22:51:25.809Z,21.47
2018-06-08T22:53:54.414Z,21.44
2018-06-08T22:56:22.993Z,21.40
2018-06-08T22:58:51.669Z,21.38
2018-06-08T23:01:20.293Z,21.41
2018-06-08T23:03:48.865Z,21.42
2018-06-08T23:06:17.453Z,21.49
2018-06-08T23:08:46.063Z,21.48
2018-06-08T23:11:14.646Z,21.50
2018-06-08T23:13:43.252Z,21.43
2018-06-08T23:16:11.861Z,21.40
2018-06-08T23:18:40.478Z,21.37
2018-06-08T23:21:09.065Z,21.30
2018-06-08T23:23:37.700Z,21.28
2018-06-08T23:26:06.312Z,21.27
2018-06-08T23:28:34.975Z,21.27
2018-06-08T23:31:03.569Z,21.26
2018-06-08T23:33:32.162Z,21.27
2018-06-08T23:36:00.910Z,21.26
2018-06-08T23:38:29.526Z,21.18
2018-06-08T23:40:58.130Z,21.12
2018-06-08T23:43:26.720Z,21.09
2018-06-08T23:45:55.402Z,21.10
2018-06-08T23:48:24.050Z,21.09
2018-06-08T23:50:52.677Z,21.12
2018-06-08T23:53:21.244Z,21.12
2018-06-08T23:55:50.681Z,21.17
2018-06-08T23:58:19.385Z,21.13
